createdAt,value
2023-05-04T00:00:10.476Z,75.04
2023-05-04T00:05:13.639Z,74.70
2023-05-04T00:10:15.188Z,74.82
2023-05-04T00:15:16.806Z,74.56
2023-05-04T00:20:18.857Z,74.88
2023-05-04T00:25:20.542Z,74.96
2023-05-04T00:30:22.128Z,75.46
2023-05-04T00:35:25.190Z,75.47
2023-05-04T00:40:26.752Z,75.37
2023-05-04T00:45:28.588Z,75.42
2023-05-04T00:50:30.417Z,75.25
2023-05-04T00:55:32.183Z,75.83
2023-05-04T01:00:33.882Z,76.16
2023-05-04T01:05:38.684Z,76.25
2023-05-04T01:10:52.456Z,76.54
2023-05-04T01:15:54.670Z,76.65
2023-05-04T01:20:56.900Z,76.23
2023-05-04T01:26:16.595Z,76.65
2023-05-04T01:31:21.521Z,76.60
2023-05-04T01:36:23.591Z,76.25
2023-05-04T01:41:26.708Z,76.73
2023-05-04T01:46:28.434Z,75.32
2023-05-04T01:51:30.091Z,75.18
2023-05-04T01:56:31.914Z,74.87
2023-05-04T02:01:33.528Z,75.95
2023-05-04T02:06:35.387Z,75.35
2023-05-04T02:11:37.081Z,76.11
2023-05-04T02:16:39.695Z,75.69
2023-05-04T02:21:42.239Z,76.10
2023-05-04T02:26:43.818Z,75.65
2023-05-04T02:31:45.457Z,75.41
2023-05-04T02:36:48.924Z,75.70
2023-05-04T02:41:50.755Z,75.66
2023-05-04T02:46:54.977Z,75.75
2023-05-04T02:51:56.686Z,75.82
2023-05-04T02:56:58.287Z,75.50
2023-05-04T03:02:00.063Z,74.99
2023-05-04T03:07:01.721Z,75.73
2023-05-04T03:12:04.312Z,75.25
2023-05-04T03:17:07.052Z,75.61
2023-05-04T03:22:08.909Z,76.64
2023-05-04T03:27:10.582Z,77.06
2023-05-04T03:32:13.843Z,77.36
2023-05-04T03:37:16.485Z,77.68
2023-05-04T03:42:18.152Z,77.73
2023-05-04T03:47:19.776Z,76.62
2023-05-04T03:52:21.718Z,76.80
2023-05-04T03:57:24.269Z,77.50
2023-05-04T04:02:28.099Z,77.38
2023-05-04T04:07:33.121Z,76.89
2023-05-04T04:12:34.958Z,76.03
2023-05-04T04:17:36.533Z,74.87
2023-05-04T04:22:38.124Z,74.77
2023-05-04T04:27:39.786Z,74.63
2023-05-04T04:32:41.394Z,74.33
2023-05-04T04:37:42.983Z,74.02
2023-05-04T04:42:44.610Z,73.43
2023-05-04T04:47:46.276Z,72.72
2023-05-04T04:52:47.843Z,72.85
2023-05-04T04:57:50.708Z,72.46
2023-05-04T05:02:52.329Z,72.18
2023-05-04T05:07:53.926Z,70.83
2023-05-04T05:12:55.716Z,69.73
2023-05-04T05:17:57.340Z,70.17
2023-05-04T05:22:58.907Z,69.83
2023-05-04T05:28:00.484Z,68.61
2023-05-04T05:33:03.732Z,68.53
2023-05-04T05:38:05.385Z,67.16
2023-05-04T05:43:06.991Z,66.98
2023-05-04T05:48:08.791Z,65.77
2023-05-04T05:53:10.420Z,65.85
2023-05-04T05:58:11.965Z,65.47
2023-05-04T06:03:14.361Z,64.96
2023-05-04T06:08:16.054Z,64.29
2023-05-04T06:13:17.755Z,64.15
2023-05-04T06:18:20.291Z,63.53
2023-05-04T06:23:21.920Z,63.26
2023-05-04T06:28:23.474Z,63.44
2023-05-04T06:33:25.105Z,61.98
2023-05-04T06:38:26.803Z,61.02
2023-05-04T06:43:28.380Z,60.88
2023-05-04T06:48:30.516Z,61.15
2023-05-04T06:53:32.088Z,58.97
2023-05-04T06:58:33.698Z,59.06
2023-05-04T07:03:35.510Z,58.86
2023-05-04T07:08:37.416Z,58.90
2023-05-04T07:13:39.022Z,57.66
2023-05-04T07:18:40.706Z,58.22
2023-05-04T07:23:42.698Z,56.76
2023-05-04T07:28:44.336Z,56.90
2023-05-04T07:33:46.003Z,56.58
2023-05-04T07:38:47.694Z,56.73
2023-05-04T07:43:49.404Z,55.24
2023-05-04T07:48:51.003Z,54.62
2023-05-04T07:53:52.631Z,53.56
2023-05-04T07:58:54.251Z,51.62
2023-05-04T08:03:55.822Z,51.63
2023-05-04T08:08:57.425Z,50.65
2023-05-04T08:13:59.068Z,49.24
2023-05-04T08:19:01.390Z,49.95
2023-05-04T08:24:03.588Z,48.93
2023-05-04T08:29:10.753Z,48.05
2023-05-04T08:34:12.521Z,47.55
2023-05-04T08:39:14.157Z,48.04
2023-05-04T08:44:17.528Z,47.15
2023-05-04T08:49:23.076Z,46.73
2023-05-04T08:54:25.482Z,47.11
2023-05-04T08:59:28.444Z,47.31
2023-05-04T09:04:31.110Z,47.27
2023-05-04T09:09:32.805Z,46.75
2023-05-04T09:14:35.743Z,47.12
2023-05-04T09:19:38.917Z,47.38
2023-05-04T09:24:40.640Z,46.49
2023-05-04T09:29:42.496Z,46.15
2023-05-04T09:34:53.703Z,46.00
2023-05-04T09:39:58.748Z,46.23
2023-05-04T09:45:00.993Z,45.91
2023-05-04T09:50:20.918Z,44.63
2023-05-04T09:55:23.384Z,43.87
2023-05-04T10:00:25.381Z,44.63
2023-05-04T10:05:27.112Z,45.45
2023-05-04T10:10:28.777Z,44.37
2023-05-04T10:15:30.691Z,43.90
2023-05-04T10:20:59.356Z,43.76
2023-05-04T10:26:00.850Z,43.66
2023-05-04T10:31:02.822Z,43.41
2023-05-04T10:36:04.673Z,43.22
2023-05-04T10:41:19.484Z,43.55
2023-05-04T10:46:22.967Z,43.32
2023-05-04T10:51:32.699Z,40.69
2023-05-04T10:56:37.525Z,40.26
2023-05-04T11:01:44.904Z,39.65
2023-05-04T11:06:58.488Z,38.91
2023-05-04T11:12:00.111Z,40.03
2023-05-04T11:22:20.119Z,40.27
2023-05-04T11:27:28.726Z,40.24
2023-05-04T11:32:40.018Z,39.13
2023-05-04T11:37:42.907Z,38.94
2023-05-04T11:42:45.479Z,38.87
2023-05-04T11:47:47.897Z,40.17
2023-05-04T11:52:49.634Z,38.91
2023-05-04T11:58:01.475Z,37.75
2023-05-04T12:03:05.839Z,38.38
2023-05-04T12:08:08.801Z,37.03
2023-05-04T12:13:19.385Z,36.88
2023-05-04T12:18:22.905Z,38.49
2023-05-04T12:23:24.537Z,36.60
2023-05-04T12:28:26.848Z,36.02
2023-05-04T12:33:28.513Z,37.42
2023-05-04T12:38:30.440Z,37.47
2023-05-04T12:43:33.036Z,37.93
2023-05-04T12:48:34.837Z,37.07
2023-05-04T12:53:36.752Z,35.28
2023-05-04T12:58:38.377Z,35.80
2023-05-04T13:03:40.163Z,35.58
2023-05-04T13:08:41.796Z,35.81
2023-05-04T13:13:43.334Z,35.66
2023-05-04T13:18:44.933Z,35.01
2023-05-04T13:23:46.662Z,35.31
2023-05-04T13:28:48.659Z,35.65
2023-05-04T13:33:50.496Z,35.94
2023-05-04T13:38:52.086Z,35.50
2023-05-04T13:43:54.109Z,35.94
2023-05-04T13:48:57.089Z,35.02
2023-05-04T13:54:01.054Z,35.15
2023-05-04T13:59:04.077Z,34.00
2023-05-04T14:04:06.448Z,35.43
2023-05-04T14:09:08.508Z,35.46
2023-05-04T14:14:10.111Z,34.61
2023-05-04T14:19:11.676Z,35.23
2023-05-04T14:24:13.329Z,35.53
2023-05-04T14:29:14.868Z,35.41
2023-05-04T14:34:16.649Z,35.48
2023-05-04T14:39:18.302Z,34.98
2023-05-04T14:44:20.650Z,35.07
2023-05-04T14:49:35.784Z,34.28
2023-05-04T14:54:38.489Z,35.53
2023-05-04T14:59:40.342Z,35.43
2023-05-04T15:04:41.926Z,34.98
2023-05-04T15:09:43.611Z,35.53
2023-05-04T15:14:46.142Z,35.08
2023-05-04T15:19:47.736Z,35.53
2023-05-04T15:24:49.308Z,36.25
2023-05-04T15:29:50.836Z,36.24
2023-05-04T15:35:04.607Z,36.68
2023-05-04T15:40:08.179Z,36.87
2023-05-04T15:45:10.740Z,36.79
2023-05-04T15:50:12.878Z,35.74
2023-05-04T15:55:25.228Z,36.46
2023-05-04T16:00:27.766Z,36.90
2023-05-04T16:05:29.435Z,36.94
2023-05-04T16:10:31.120Z,37.58
2023-05-04T16:15:32.758Z,38.46
2023-05-04T16:20:34.341Z,38.29
2023-05-04T16:25:36.022Z,38.20
2023-05-04T16:30:37.888Z,38.58
2023-05-04T16:35:39.759Z,39.61
2023-05-04T16:40:42.304Z,40.53
2023-05-04T16:45:44.635Z,41.42
2023-05-04T16:50:46.421Z,42.62
2023-05-04T16:55:48.068Z,43.20
2023-05-04T17:00:49.674Z,43.30
2023-05-04T17:05:51.300Z,43.92
2023-05-04T17:10:52.929Z,43.90
2023-05-04T17:15:54.582Z,43.91
2023-05-04T17:20:56.214Z,43.88
2023-05-04T17:25:57.854Z,43.90
2023-05-04T17:30:59.455Z,44.17
2023-05-04T17:36:01.034Z,44.53
2023-05-04T17:41:02.704Z,45.04
2023-05-04T17:46:04.550Z,45.30
2023-05-04T17:51:09.258Z,45.26
2023-05-04T17:56:10.847Z,45.81
2023-05-04T18:01:12.593Z,45.72
2023-05-04T18:06:14.441Z,45.96
2023-05-04T18:11:16.157Z,45.80
2023-05-04T18:16:18.120Z,46.24
2023-05-04T18:21:19.701Z,45.91
2023-05-04T18:26:22.664Z,46.19
2023-05-04T18:31:24.594Z,46.60
2023-05-04T18:36:26.222Z,46.58
2023-05-04T18:41:28.294Z,47.10
2023-05-04T18:46:29.842Z,47.53
2023-05-04T18:51:31.445Z,48.01
2023-05-04T18:56:33.128Z,48.30
2023-05-04T19:01:34.983Z,48.31
2023-05-04T19:06:36.643Z,48.50
2023-05-04T19:11:38.248Z,48.52
2023-05-04T19:16:40.149Z,48.95
2023-05-04T19:21:42.903Z,49.22
2023-05-04T19:26:44.926Z,49.21
2023-05-04T19:31:47.314Z,49.29
2023-05-04T19:36:48.925Z,49.71
2023-05-04T19:41:50.687Z,50.94
2023-05-04T19:46:52.442Z,51.19
2023-05-04T19:51:54.042Z,50.66
2023-05-04T19:56:55.620Z,51.05
2023-05-04T20:01:58.901Z,50.66
2023-05-04T20:07:00.542Z,51.18
2023-05-04T20:12:02.714Z,51.22
2023-05-04T20:17:04.590Z,51.69
2023-05-04T20:22:06.331Z,52.27
2023-05-04T20:27:08.342Z,52.47
2023-05-04T20:32:10.762Z,53.18
2023-05-04T20:37:12.395Z,52.95
2023-05-04T20:42:14.411Z,53.00
2023-05-04T20:47:16.142Z,53.26
2023-05-04T20:52:17.719Z,53.42
2023-05-04T20:57:19.358Z,53.97
2023-05-04T21:02:21.455Z,54.32
2023-05-04T21:07:23.558Z,54.55
2023-05-04T21:12:25.770Z,54.44
2023-05-04T21:17:27.412Z,54.92
2023-05-04T21:22:29.029Z,54.83
2023-05-04T21:27:30.692Z,55.12
2023-05-04T21:32:32.286Z,55.82
2023-05-04T21:37:33.948Z,56.08
2023-05-04T21:42:35.505Z,56.56
2023-05-04T21:47:37.279Z,57.15
2023-05-04T21:52:38.897Z,57.67
2023-05-04T21:57:40.498Z,57.77
2023-05-04T22:02:42.087Z,57.90
2023-05-04T22:07:43.705Z,59.03
2023-05-04T22:12:45.439Z,59.67
2023-05-04T22:17:47.492Z,59.88
2023-05-04T22:22:51.033Z,60.67
2023-05-04T22:27:52.654Z,61.62
2023-05-04T22:32:54.508Z,62.32
2023-05-04T22:37:56.085Z,62.65
2023-05-04T22:42:57.651Z,63.12
2023-05-04T22:47:59.269Z,62.97
2023-05-04T22:53:02.061Z,63.42
2023-05-04T22:58:03.724Z,63.33
2023-05-04T23:03:06.390Z,63.95
2023-05-04T23:08:08.382Z,64.79
2023-05-04T23:13:10.069Z,65.57
2023-05-04T23:18:11.723Z,65.93
2023-05-04T23:23:13.374Z,66.63
2023-05-04T23:28:14.897Z,67.73
2023-05-04T23:33:16.471Z,67.64
2023-05-04T23:38:18.048Z,68.29
2023-05-04T23:43:19.856Z,68.42
2023-05-04T23:48:21.417Z,67.95
2023-05-04T23:53:23.244Z,67.83
2023-05-04T23:58:25.145Z,67.93
